sensor_id;sensor_type;location;lat;lon;timestamp;temperature;humidity
70246;SHT30;57637;49.272;8.590;2023-04-24T00:01:29;11.85;82.41
70246;SHT30;57637;49.272;8.590;2023-04-24T00:03:54;11.73;82.76
70246;SHT30;57637;49.272;8.590;2023-04-24T00:06:24;11.65;83.08
70246;SHT30;57637;49.272;8.590;2023-04-24T00:08:57;11.63;83.11
70246;SHT30;57637;49.272;8.590;2023-04-24T00:11:23;11.61;83.24
70246;SHT30;57637;49.272;8.590;2023-04-24T00:13:49;11.65;83.16
70246;SHT30;57637;49.272;8.590;2023-04-24T00:16:14;11.63;83.28
70246;SHT30;57637;49.272;8.590;2023-04-24T00:18:39;11.67;83.32
70246;SHT30;57637;49.272;8.590;2023-04-24T00:21:06;11.63;83.37
70246;SHT30;57637;49.272;8.590;2023-04-24T00:23:32;11.63;83.45
70246;SHT30;57637;49.272;8.590;2023-04-24T00:25:57;11.63;83.45
70246;SHT30;57637;49.272;8.590;2023-04-24T00:28:22;11.65;83.48
70246;SHT30;57637;49.272;8.590;2023-04-24T00:30:48;11.62;83.45
70246;SHT30;57637;49.272;8.590;2023-04-24T00:33:13;11.58;83.69
70246;SHT30;57637;49.272;8.590;2023-04-24T00:35:39;11.55;83.77
70246;SHT30;57637;49.272;8.590;2023-04-24T00:38:05;11.54;83.80
70246;SHT30;57637;49.272;8.590;2023-04-24T00:40:30;11.56;83.69
70246;SHT30;57637;49.272;8.590;2023-04-24T00:42:55;11.58;83.59
70246;SHT30;57637;49.272;8.590;2023-04-24T00:45:21;11.56;83.57
70246;SHT30;57637;49.272;8.590;2023-04-24T00:47:46;11.56;83.58
70246;SHT30;57637;49.272;8.590;2023-04-24T00:50:14;11.55;83.77
70246;SHT30;57637;49.272;8.590;2023-04-24T00:52:40;11.52;83.67
70246;SHT30;57637;49.272;8.590;2023-04-24T00:55:06;11.51;83.67
70246;SHT30;57637;49.272;8.590;2023-04-24T00:57:32;11.43;83.74
70246;SHT30;57637;49.272;8.590;2023-04-24T00:59:57;11.39;83.94
70246;SHT30;57637;49.272;8.590;2023-04-24T01:02:23;11.34;84.15
70246;SHT30;57637;49.272;8.590;2023-04-24T01:04:50;11.35;84.25
70246;SHT30;57637;49.272;8.590;2023-04-24T01:07:17;11.35;84.13
70246;SHT30;57637;49.272;8.590;2023-04-24T01:09:45;11.38;84.21
70246;SHT30;57637;49.272;8.590;2023-04-24T01:12:14;11.42;84.08
70246;SHT30;57637;49.272;8.590;2023-04-24T01:14:40;11.45;84.11
70246;SHT30;57637;49.272;8.590;2023-04-24T01:17:05;11.42;84.15
70246;SHT30;57637;49.272;8.590;2023-04-24T01:19:31;11.45;84.08
70246;SHT30;57637;49.272;8.590;2023-04-24T01:21:58;11.45;83.99
70246;SHT30;57637;49.272;8.590;2023-04-24T01:24:26;11.42;84.10
70246;SHT30;57637;49.272;8.590;2023-04-24T01:26:53;11.38;84.11
70246;SHT30;57637;49.272;8.590;2023-04-24T01:29:19;11.42;84.12
70246;SHT30;57637;49.272;8.590;2023-04-24T01:31:44;11.39;84.20
70246;SHT30;57637;49.272;8.590;2023-04-24T01:34:10;11.36;84.05
70246;SHT30;57637;49.272;8.590;2023-04-24T01:36:35;11.36;83.94
70246;SHT30;57637;49.272;8.590;2023-04-24T01:39:02;11.39;83.98
70246;SHT30;57637;49.272;8.590;2023-04-24T01:41:28;11.40;84.02
70246;SHT30;57637;49.272;8.590;2023-04-24T01:43:55;11.42;84.02
70246;SHT30;57637;49.272;8.590;2023-04-24T01:46:21;11.42;83.95
70246;SHT30;57637;49.272;8.590;2023-04-24T01:48:47;11.48;83.88
70246;SHT30;57637;49.272;8.590;2023-04-24T01:51:13;11.49;83.81
70246;SHT30;57637;49.272;8.590;2023-04-24T01:53:38;11.46;83.88
70246;SHT30;57637;49.272;8.590;2023-04-24T01:56:04;11.46;83.79
70246;SHT30;57637;49.272;8.590;2023-04-24T01:58:30;11.49;83.84
70246;SHT30;57637;49.272;8.590;2023-04-24T02:00:56;11.46;83.82
70246;SHT30;57637;49.272;8.590;2023-04-24T02:03:22;11.42;83.93
70246;SHT30;57637;49.272;8.590;2023-04-24T02:05:47;11.39;83.96
70246;SHT30;57637;49.272;8.590;2023-04-24T02:08:12;11.39;83.95
70246;SHT30;57637;49.272;8.590;2023-04-24T02:10:38;11.38;84.03
70246;SHT30;57637;49.272;8.590;2023-04-24T02:13:03;11.38;84.04
70246;SHT30;57637;49.272;8.590;2023-04-24T02:15:29;11.34;84.04
70246;SHT30;57637;49.272;8.590;2023-04-24T02:17:55;11.31;83.99
70246;SHT30;57637;49.272;8.590;2023-04-24T02:20:20;11.26;84.12
70246;SHT30;57637;49.272;8.590;2023-04-24T02:22:46;11.19;84.45
70246;SHT30;57637;49.272;8.590;2023-04-24T02:25:11;11.18;84.44
70246;SHT30;57637;49.272;8.590;2023-04-24T02:27:36;11.14;84.68
70246;SHT30;57637;49.272;8.590;2023-04-24T02:30:02;11.15;84.76
70246;SHT30;57637;49.272;8.590;2023-04-24T02:32:28;11.16;84.78
70246;SHT30;57637;49.272;8.590;2023-04-24T02:34:53;11.24;84.56
70246;SHT30;57637;49.272;8.590;2023-04-24T02:37:18;11.26;84.44
70246;SHT30;57637;49.272;8.590;2023-04-24T02:39:44;11.25;84.48
70246;SHT30;57637;49.272;8.590;2023-04-24T02:42:09;11.25;84.35
70246;SHT30;57637;49.272;8.590;2023-04-24T02:44:34;11.28;84.31
70246;SHT30;57637;49.272;8.590;2023-04-24T02:47:00;11.29;84.31
70246;SHT30;57637;49.272;8.590;2023-04-24T02:49:25;11.25;84.17
70246;SHT30;57637;49.272;8.590;2023-04-24T02:51:52;11.24;84.23
70246;SHT30;57637;49.272;8.590;2023-04-24T02:54:17;11.21;84.55
70246;SHT30;57637;49.272;8.590;2023-04-24T02:56:42;11.16;84.62
70246;SHT30;57637;49.272;8.590;2023-04-24T02:59:08;11.18;84.66
70246;SHT30;57637;49.272;8.590;2023-04-24T03:01:33;11.19;84.75
70246;SHT30;57637;49.272;8.590;2023-04-24T03:03:59;11.22;84.74
70246;SHT30;57637;49.272;8.590;2023-04-24T03:06:24;11.19;85.04
70246;SHT30;57637;49.272;8.590;2023-04-24T03:08:49;11.24;85.16
70246;SHT30;57637;49.272;8.590;2023-04-24T03:11:15;11.19;85.86
70246;SHT30;57637;49.272;8.590;2023-04-24T03:13:40;11.18;86.10
70246;SHT30;57637;49.272;8.590;2023-04-24T03:16:05;11.10;87.32
70246;SHT30;57637;49.272;8.590;2023-04-24T03:18:31;11.01;87.28
70246;SHT30;57637;49.272;8.590;2023-04-24T03:20:56;11.00;87.54
70246;SHT30;57637;49.272;8.590;2023-04-24T03:23:21;10.94;87.79
70246;SHT30;57637;49.272;8.590;2023-04-24T03:25:47;10.90;87.66
70246;SHT30;57637;49.272;8.590;2023-04-24T03:28:13;10.75;87.57
70246;SHT30;57637;49.272;8.590;2023-04-24T03:30:38;10.74;87.63
70246;SHT30;57637;49.272;8.590;2023-04-24T03:33:04;10.70;87.41
70246;SHT30;57637;49.272;8.590;2023-04-24T03:35:29;10.60;87.08
70246;SHT30;57637;49.272;8.590;2023-04-24T03:37:55;10.60;86.67
70246;SHT30;57637;49.272;8.590;2023-04-24T03:40:20;10.60;86.65
70246;SHT30;57637;49.272;8.590;2023-04-24T03:42:46;10.54;86.60
70246;SHT30;57637;49.272;8.590;2023-04-24T03:45:11;10.53;86.63
70246;SHT30;57637;49.272;8.590;2023-04-24T03:47:36;10.47;86.70
70246;SHT30;57637;49.272;8.590;2023-04-24T03:50:01;10.34;86.95
70246;SHT30;57637;49.272;8.590;2023-04-24T03:52:27;10.28;87.12
70246;SHT30;57637;49.272;8.590;2023-04-24T03:54:52;10.23;87.35
70246;SHT30;57637;49.272;8.590;2023-04-24T03:57:18;10.17;87.63
70246;SHT30;57637;49.272;8.590;2023-04-24T03:59:43;10.19;87.54
70246;SHT30;57637;49.272;8.590;2023-04-24T04:02:08;10.13;87.54
70246;SHT30;57637;49.272;8.590;2023-04-24T04:04:34;10.08;87.61
70246;SHT30;57637;49.272;8.590;2023-04-24T04:06:59;10.05;87.69
70246;SHT30;57637;49.272;8.590;2023-04-24T04:09:26;10.03;87.71
70246;SHT30;57637;49.272;8.590;2023-04-24T04:11:52;9.96;87.60
70246;SHT30;57637;49.272;8.590;2023-04-24T04:14:17;9.91;87.53
70246;SHT30;57637;49.272;8.590;2023-04-24T04:16:43;9.85;87.51
70246;SHT30;57637;49.272;8.590;2023-04-24T04:19:08;9.79;87.59
70246;SHT30;57637;49.272;8.590;2023-04-24T04:21:33;9.72;87.63
70246;SHT30;57637;49.272;8.590;2023-04-24T04:24:00;9.67;87.72
70246;SHT30;57637;49.272;8.590;2023-04-24T04:26:26;9.59;87.69
70246;SHT30;57637;49.272;8.590;2023-04-24T04:28:52;9.50;87.77
70246;SHT30;57637;49.272;8.590;2023-04-24T04:31:19;9.50;87.90
70246;SHT30;57637;49.272;8.590;2023-04-24T04:33:44;9.45;87.78
70246;SHT30;57637;49.272;8.590;2023-04-24T04:36:10;9.45;87.74
70246;SHT30;57637;49.272;8.590;2023-04-24T04:38:35;9.45;87.60
70246;SHT30;57637;49.272;8.590;2023-04-24T04:41:02;9.48;87.52
70246;SHT30;57637;49.272;8.590;2023-04-24T04:43:28;9.42;87.36
70246;SHT30;57637;49.272;8.590;2023-04-24T04:45:53;9.44;87.25
70246;SHT30;57637;49.272;8.590;2023-04-24T04:48:19;9.45;87.22
70246;SHT30;57637;49.272;8.590;2023-04-24T04:50:45;9.47;86.87
70246;SHT30;57637;49.272;8.590;2023-04-24T04:53:10;9.52;86.75
70246;SHT30;57637;49.272;8.590;2023-04-24T04:55:36;9.83;86.60
70246;SHT30;57637;49.272;8.590;2023-04-24T04:58:02;10.43;85.80
70246;SHT30;57637;49.272;8.590;2023-04-24T05:00:27;10.85;84.26
70246;SHT30;57637;49.272;8.590;2023-04-24T05:02:54;11.22;83.56
70246;SHT30;57637;49.272;8.590;2023-04-24T05:05:19;11.63;82.09
70246;SHT30;57637;49.272;8.590;2023-04-24T05:07:45;11.67;80.32
70246;SHT30;57637;49.272;8.590;2023-04-24T05:10:10;11.76;80.96
70246;SHT30;57637;49.272;8.590;2023-04-24T05:12:36;11.65;79.69
70246;SHT30;57637;49.272;8.590;2023-04-24T05:15:01;11.96;79.75
70246;SHT30;57637;49.272;8.590;2023-04-24T05:17:27;12.31;78.72
70246;SHT30;57637;49.272;8.590;2023-04-24T05:19:53;12.41;78.13
70246;SHT30;57637;49.272;8.590;2023-04-24T05:22:18;12.72;77.47
70246;SHT30;57637;49.272;8.590;2023-04-24T05:24:45;12.77;77.45
70246;SHT30;57637;49.272;8.590;2023-04-24T05:27:11;12.81;77.04
70246;SHT30;57637;49.272;8.590;2023-04-24T05:29:36;12.74;75.92
70246;SHT30;57637;49.272;8.590;2023-04-24T05:32:02;13.22;75.92
70246;SHT30;57637;49.272;8.590;2023-04-24T05:34:27;13.26;75.45
70246;SHT30;57637;49.272;8.590;2023-04-24T05:36:52;13.44;75.61
70246;SHT30;57637;49.272;8.590;2023-04-24T05:39:18;13.32;74.90
70246;SHT30;57637;49.272;8.590;2023-04-24T05:41:44;13.22;75.00
70246;SHT30;57637;49.272;8.590;2023-04-24T05:44:10;13.12;75.79
70246;SHT30;57637;49.272;8.590;2023-04-24T05:46:35;12.88;76.19
70246;SHT30;57637;49.272;8.590;2023-04-24T05:49:01;12.89;75.93
70246;SHT30;57637;49.272;8.590;2023-04-24T05:51:27;12.93;76.03
70246;SHT30;57637;49.272;8.590;2023-04-24T05:53:52;13.03;76.24
70246;SHT30;57637;49.272;8.590;2023-04-24T05:56:21;13.42;75.67
70246;SHT30;57637;49.272;8.590;2023-04-24T05:58:46;13.52;74.70
70246;SHT30;57637;49.272;8.590;2023-04-24T06:01:12;13.87;74.56
70246;SHT30;57637;49.272;8.590;2023-04-24T06:03:41;14.03;72.92
70246;SHT30;57637;49.272;8.590;2023-04-24T06:06:07;14.14;72.32
70246;SHT30;57637;49.272;8.590;2023-04-24T06:08:33;14.18;71.47
70246;SHT30;57637;49.272;8.590;2023-04-24T06:10:59;13.83;73.00
70246;SHT30;57637;49.272;8.590;2023-04-24T06:13:24;13.63;74.16
70246;SHT30;57637;49.272;8.590;2023-04-24T06:15:50;13.24;74.87
70246;SHT30;57637;49.272;8.590;2023-04-24T06:18:16;12.84;75.74
70246;SHT30;57637;49.272;8.590;2023-04-24T06:20:41;12.84;76.62
70246;SHT30;57637;49.272;8.590;2023-04-24T06:23:07;12.62;76.66
70246;SHT30;57637;49.272;8.590;2023-04-24T06:25:32;12.82;76.39
70246;SHT30;57637;49.272;8.590;2023-04-24T06:27:58;12.84;75.37
70246;SHT30;57637;49.272;8.590;2023-04-24T06:30:23;12.87;76.21
70246;SHT30;57637;49.272;8.590;2023-04-24T06:32:48;12.92;76.07
70246;SHT30;57637;49.272;8.590;2023-04-24T06:35:14;13.11;75.29
70246;SHT30;57637;49.272;8.590;2023-04-24T06:37:40;13.12;74.91
70246;SHT30;57637;49.272;8.590;2023-04-24T06:40:07;13.19;74.20
70246;SHT30;57637;49.272;8.590;2023-04-24T06:42:33;13.36;74.24
70246;SHT30;57637;49.272;8.590;2023-04-24T06:45:00;13.38;73.93
70246;SHT30;57637;49.272;8.590;2023-04-24T06:47:25;13.43;73.10
70246;SHT30;57637;49.272;8.590;2023-04-24T06:49:50;13.39;73.51
70246;SHT30;57637;49.272;8.590;2023-04-24T06:52:17;13.54;73.32
70246;SHT30;57637;49.272;8.590;2023-04-24T06:54:43;13.70;72.50
70246;SHT30;57637;49.272;8.590;2023-04-24T06:57:08;13.59;72.27
70246;SHT30;57637;49.272;8.590;2023-04-24T06:59:34;13.49;72.99
70246;SHT30;57637;49.272;8.590;2023-04-24T07:01:59;13.26;73.04
70246;SHT30;57637;49.272;8.590;2023-04-24T07:04:25;13.64;73.01
70246;SHT30;57637;49.272;8.590;2023-04-24T07:06:50;13.52;72.42
70246;SHT30;57637;49.272;8.590;2023-04-24T07:09:16;13.36;73.08
70246;SHT30;57637;49.272;8.590;2023-04-24T07:11:43;13.16;72.84
70246;SHT30;57637;49.272;8.590;2023-04-24T07:14:09;12.93;74.60
70246;SHT30;57637;49.272;8.590;2023-04-24T07:16:35;12.71;75.63
70246;SHT30;57637;49.272;8.590;2023-04-24T07:19:00;12.40;76.91
70246;SHT30;57637;49.272;8.590;2023-04-24T07:21:26;11.97;78.86
70246;SHT30;57637;49.272;8.590;2023-04-24T07:23:52;11.25;78.56
70246;SHT30;57637;49.272;8.590;2023-04-24T07:26:17;11.22;78.17
70246;SHT30;57637;49.272;8.590;2023-04-24T07:28:43;11.18;79.11
70246;SHT30;57637;49.272;8.590;2023-04-24T07:31:08;10.97;79.38
70246;SHT30;57637;49.272;8.590;2023-04-24T07:33:33;11.12;78.62
70246;SHT30;57637;49.272;8.590;2023-04-24T07:35:59;11.12;77.97
70246;SHT30;57637;49.272;8.590;2023-04-24T07:38:25;11.10;78.21
70246;SHT30;57637;49.272;8.590;2023-04-24T07:40:51;10.85;77.73
70246;SHT30;57637;49.272;8.590;2023-04-24T07:43:17;11.04;77.79
70246;SHT30;57637;49.272;8.590;2023-04-24T07:45:42;11.34;77.93
70246;SHT30;57637;49.272;8.590;2023-04-24T07:48:09;11.58;77.57
70246;SHT30;57637;49.272;8.590;2023-04-24T07:50:35;12.03;76.24
70246;SHT30;57637;49.272;8.590;2023-04-24T07:53:01;12.42;74.98
70246;SHT30;57637;49.272;8.590;2023-04-24T07:55:27;13.02;74.11
70246;SHT30;57637;49.272;8.590;2023-04-24T07:57:52;13.32;72.34
70246;SHT30;57637;49.272;8.590;2023-04-24T08:00:17;13.27;72.21
70246;SHT30;57637;49.272;8.590;2023-04-24T08:02:43;12.98;73.17
70246;SHT30;57637;49.272;8.590;2023-04-24T08:05:09;12.60;72.41
70246;SHT30;57637;49.272;8.590;2023-04-24T08:07:34;13.06;72.31
70246;SHT30;57637;49.272;8.590;2023-04-24T08:10:00;13.33;71.52
70246;SHT30;57637;49.272;8.590;2023-04-24T08:12:27;14.03;71.15
70246;SHT30;57637;49.272;8.590;2023-04-24T08:14:53;14.31;69.26
70246;SHT30;57637;49.272;8.590;2023-04-24T08:17:19;14.15;68.94
70246;SHT30;57637;49.272;8.590;2023-04-24T08:19:44;14.41;67.19
70246;SHT30;57637;49.272;8.590;2023-04-24T08:22:13;14.18;68.07
70246;SHT30;57637;49.272;8.590;2023-04-24T08:24:39;14.49;67.21
70246;SHT30;57637;49.272;8.590;2023-04-24T08:27:05;14.17;67.26
70246;SHT30;57637;49.272;8.590;2023-04-24T08:29:30;13.85;68.18
70246;SHT30;57637;49.272;8.590;2023-04-24T08:31:56;13.69;68.27
70246;SHT30;57637;49.272;8.590;2023-04-24T08:34:22;13.23;68.33
70246;SHT30;57637;49.272;8.590;2023-04-24T08:36:48;12.88;68.31
70246;SHT30;57637;49.272;8.590;2023-04-24T08:39:14;12.91;68.87
70246;SHT30;57637;49.272;8.590;2023-04-24T08:41:41;12.88;68.99
70246;SHT30;57637;49.272;8.590;2023-04-24T08:44:10;12.82;69.21
70246;SHT30;57637;49.272;8.590;2023-04-24T08:46:37;12.96;68.73
70246;SHT30;57637;49.272;8.590;2023-04-24T08:49:04;13.05;68.67
70246;SHT30;57637;49.272;8.590;2023-04-24T08:51:30;13.12;67.75
70246;SHT30;57637;49.272;8.590;2023-04-24T08:53:56;13.52;67.73
70246;SHT30;57637;49.272;8.590;2023-04-24T08:56:22;13.80;67.64
70246;SHT30;57637;49.272;8.590;2023-04-24T08:58:49;14.14;66.31
70246;SHT30;57637;49.272;8.590;2023-04-24T09:01:16;14.00;67.16
70246;SHT30;57637;49.272;8.590;2023-04-24T09:03:43;14.18;66.37
70246;SHT30;57637;49.272;8.590;2023-04-24T09:06:10;13.85;63.65
70246;SHT30;57637;49.272;8.590;2023-04-24T09:08:36;14.00;63.57
70246;SHT30;57637;49.272;8.590;2023-04-24T09:11:04;13.87;64.03
70246;SHT30;57637;49.272;8.590;2023-04-24T09:13:30;13.69;64.52
70246;SHT30;57637;49.272;8.590;2023-04-24T09:15:56;13.80;64.74
70246;SHT30;57637;49.272;8.590;2023-04-24T09:18:22;13.44;63.86
70246;SHT30;57637;49.272;8.590;2023-04-24T09:21:07;13.26;64.96
70246;SHT30;57637;49.272;8.590;2023-04-24T09:23:33;13.29;63.81
70246;SHT30;57637;49.272;8.590;2023-04-24T09:25:59;13.18;64.56
70246;SHT30;57637;49.272;8.590;2023-04-24T09:28:32;12.96;64.59
70246;SHT30;57637;49.272;8.590;2023-04-24T09:31:09;12.78;65.47
70246;SHT30;57637;49.272;8.590;2023-04-24T09:33:36;13.08;65.37
70246;SHT30;57637;49.272;8.590;2023-04-24T09:36:02;13.39;65.08
70246;SHT30;57637;49.272;8.590;2023-04-24T09:38:32;13.59;64.64
70246;SHT30;57637;49.272;8.590;2023-04-24T09:40:59;13.70;63.55
70246;SHT30;57637;49.272;8.590;2023-04-24T09:43:26;13.67;64.80
70246;SHT30;57637;49.272;8.590;2023-04-24T09:45:54;13.59;64.90
70246;SHT30;57637;49.272;8.590;2023-04-24T09:48:29;13.69;65.38
70246;SHT30;57637;49.272;8.590;2023-04-24T09:50:55;13.85;64.82
70246;SHT30;57637;49.272;8.590;2023-04-24T09:53:24;14.20;64.31
70246;SHT30;57637;49.272;8.590;2023-04-24T09:55:50;14.31;63.33
70246;SHT30;57637;49.272;8.590;2023-04-24T09:58:18;14.36;63.32
70246;SHT30;57637;49.272;8.590;2023-04-24T10:00:49;14.26;62.36
70246;SHT30;57637;49.272;8.590;2023-04-24T10:03:18;14.41;62.75
70246;SHT30;57637;49.272;8.590;2023-04-24T10:05:44;14.35;61.67
70246;SHT30;57637;49.272;8.590;2023-04-24T10:08:11;14.15;61.18
70246;SHT30;57637;49.272;8.590;2023-04-24T10:10:38;13.87;62.45
70246;SHT30;57637;49.272;8.590;2023-04-24T10:13:10;13.60;62.99
70246;SHT30;57637;49.272;8.590;2023-04-24T10:15:37;13.40;63.88
70246;SHT30;57637;49.272;8.590;2023-04-24T10:18:06;13.15;64.44
70246;SHT30;57637;49.272;8.590;2023-04-24T10:20:34;13.22;65.32
70246;SHT30;57637;49.272;8.590;2023-04-24T10:23:01;13.13;66.35
70246;SHT30;57637;49.272;8.590;2023-04-24T10:25:28;12.95;67.17
70246;SHT30;57637;49.272;8.590;2023-04-24T10:27:55;12.77;69.16
70246;SHT30;57637;49.272;8.590;2023-04-24T10:30:24;12.26;72.53
70246;SHT30;57637;49.272;8.590;2023-04-24T10:32:55;12.01;73.34
70246;SHT30;57637;49.272;8.590;2023-04-24T10:35:21;11.90;75.14
70246;SHT30;57637;49.272;8.590;2023-04-24T10:37:50;11.86;76.07
70246;SHT30;57637;49.272;8.590;2023-04-24T10:40:19;11.87;77.36
70246;SHT30;57637;49.272;8.590;2023-04-24T10:42:51;11.67;79.33
70246;SHT30;57637;49.272;8.590;2023-04-24T10:45:21;11.93;78.71
70246;SHT30;57637;49.272;8.590;2023-04-24T10:48:01;12.21;77.47
70246;SHT30;57637;49.272;8.590;2023-04-24T10:50:41;12.68;76.89
70246;SHT30;57637;49.272;8.590;2023-04-24T10:53:17;13.11;75.74
70246;SHT30;57637;49.272;8.590;2023-04-24T10:55:48;13.38;74.87
70246;SHT30;57637;49.272;8.590;2023-04-24T10:58:15;13.78;74.59
70246;SHT30;57637;49.272;8.590;2023-04-24T11:00:42;14.29;72.38
70246;SHT30;57637;49.272;8.590;2023-04-24T11:03:24;14.46;72.65
70246;SHT30;57637;49.272;8.590;2023-04-24T11:05:55;14.89;72.46
70246;SHT30;57637;49.272;8.590;2023-04-24T11:08:28;14.95;71.18
70246;SHT30;57637;49.272;8.590;2023-04-24T11:11:11;15.10;69.56
70246;SHT30;57637;49.272;8.590;2023-04-24T11:16:34;14.45;68.93
70246;SHT30;57637;49.272;8.590;2023-04-24T11:21:31;14.85;67.76
70246;SHT30;57637;49.272;8.590;2023-04-24T11:24:22;14.41;66.34
70246;SHT30;57637;49.272;8.590;2023-04-24T11:26:51;14.41;66.60
70246;SHT30;57637;49.272;8.590;2023-04-24T11:29:19;14.44;68.21
70246;SHT30;57637;49.272;8.590;2023-04-24T11:31:45;14.35;66.48
70246;SHT30;57637;49.272;8.590;2023-04-24T11:34:16;14.17;65.61
70246;SHT30;57637;49.272;8.590;2023-04-24T11:36:43;14.71;66.05
70246;SHT30;57637;49.272;8.590;2023-04-24T11:39:10;15.34;64.42
70246;SHT30;57637;49.272;8.590;2023-04-24T11:41:37;15.41;62.91
70246;SHT30;57637;49.272;8.590;2023-04-24T11:44:03;15.77;62.97
70246;SHT30;57637;49.272;8.590;2023-04-24T11:46:33;16.19;62.07
70246;SHT30;57637;49.272;8.590;2023-04-24T11:49:02;15.67;60.54
70246;SHT30;57637;49.272;8.590;2023-04-24T11:51:28;15.81;61.37
70246;SHT30;57637;49.272;8.590;2023-04-24T11:53:54;15.44;61.02
70246;SHT30;57637;49.272;8.590;2023-04-24T11:56:21;15.46;61.99
70246;SHT30;57637;49.272;8.590;2023-04-24T11:58:47;15.31;62.39
70246;SHT30;57637;49.272;8.590;2023-04-24T12:01:13;15.29;61.06
70246;SHT30;57637;49.272;8.590;2023-04-24T12:03:39;14.54;60.84
70246;SHT30;57637;49.272;8.590;2023-04-24T12:06:08;14.58;61.06
70246;SHT30;57637;49.272;8.590;2023-04-24T12:08:34;14.73;60.76
70246;SHT30;57637;49.272;8.590;2023-04-24T12:11:04;14.65;59.83
70246;SHT30;57637;49.272;8.590;2023-04-24T12:13:32;14.65;60.85
70246;SHT30;57637;49.272;8.590;2023-04-24T12:15:58;14.35;60.29
70246;SHT30;57637;49.272;8.590;2023-04-24T12:18:23;14.61;60.88
70246;SHT30;57637;49.272;8.590;2023-04-24T12:20:50;14.44;60.99
70246;SHT30;57637;49.272;8.590;2023-04-24T12:23:15;14.65;61.52
70246;SHT30;57637;49.272;8.590;2023-04-24T12:25:42;14.92;60.89
70246;SHT30;57637;49.272;8.590;2023-04-24T12:28:11;15.07;59.48
70246;SHT30;57637;49.272;8.590;2023-04-24T12:30:42;14.93;58.78
70246;SHT30;57637;49.272;8.590;2023-04-24T12:33:16;15.00;59.25
70246;SHT30;57637;49.272;8.590;2023-04-24T12:35:42;14.86;58.12
70246;SHT30;57637;49.272;8.590;2023-04-24T12:38:08;14.85;58.55
70246;SHT30;57637;49.272;8.590;2023-04-24T12:40:35;14.73;58.89
70246;SHT30;57637;49.272;8.590;2023-04-24T12:43:01;14.49;59.27
70246;SHT30;57637;49.272;8.590;2023-04-24T12:45:26;14.75;60.53
70246;SHT30;57637;49.272;8.590;2023-04-24T12:47:53;14.87;59.75
70246;SHT30;57637;49.272;8.590;2023-04-24T12:50:18;14.66;58.90
70246;SHT30;57637;49.272;8.590;2023-04-24T12:52:44;14.83;59.90
70246;SHT30;57637;49.272;8.590;2023-04-24T12:55:10;15.04;58.90
70246;SHT30;57637;49.272;8.590;2023-04-24T12:57:37;15.10;59.11
70246;SHT30;57637;49.272;8.590;2023-04-24T13:00:05;15.20;58.76
70246;SHT30;57637;49.272;8.590;2023-04-24T13:02:32;15.23;59.39
70246;SHT30;57637;49.272;8.590;2023-04-24T13:04:58;15.90;57.20
70246;SHT30;57637;49.272;8.590;2023-04-24T13:07:25;16.28;56.66
70246;SHT30;57637;49.272;8.590;2023-04-24T13:09:51;16.21;55.80
70246;SHT30;57637;49.272;8.590;2023-04-24T13:12:17;16.32;54.98
70246;SHT30;57637;49.272;8.590;2023-04-24T13:14:42;16.69;55.54
70246;SHT30;57637;49.272;8.590;2023-04-24T13:17:08;16.48;54.73
70246;SHT30;57637;49.272;8.590;2023-04-24T13:19:38;16.53;54.64
70246;SHT30;57637;49.272;8.590;2023-04-24T13:22:08;16.42;54.73
70246;SHT30;57637;49.272;8.590;2023-04-24T13:24:35;16.26;54.84
70246;SHT30;57637;49.272;8.590;2023-04-24T13:27:03;16.02;54.68
70246;SHT30;57637;49.272;8.590;2023-04-24T13:29:28;16.18;54.75
70246;SHT30;57637;49.272;8.590;2023-04-24T13:31:54;16.41;55.28
70246;SHT30;57637;49.272;8.590;2023-04-24T13:34:20;16.66;55.94
70246;SHT30;57637;49.272;8.590;2023-04-24T13:36:46;16.72;55.01
70246;SHT30;57637;49.272;8.590;2023-04-24T13:39:11;16.53;54.28
70246;SHT30;57637;49.272;8.590;2023-04-24T13:41:37;16.34;53.72
70246;SHT30;57637;49.272;8.590;2023-04-24T13:44:03;16.32;54.33
70246;SHT30;57637;49.272;8.590;2023-04-24T13:46:29;16.21;54.68
70246;SHT30;57637;49.272;8.590;2023-04-24T13:48:55;15.95;54.87
70246;SHT30;57637;49.272;8.590;2023-04-24T13:51:21;15.81;55.26
70246;SHT30;57637;49.272;8.590;2023-04-24T13:53:47;15.90;55.14
70246;SHT30;57637;49.272;8.590;2023-04-24T13:56:13;15.94;55.09
70246;SHT30;57637;49.272;8.590;2023-04-24T13:58:39;15.98;55.18
70246;SHT30;57637;49.272;8.590;2023-04-24T14:01:04;15.84;55.49
70246;SHT30;57637;49.272;8.590;2023-04-24T14:03:30;15.53;56.85
70246;SHT30;57637;49.272;8.590;2023-04-24T14:05:55;15.72;57.42
70246;SHT30;57637;49.272;8.590;2023-04-24T14:08:21;15.68;57.84
70246;SHT30;57637;49.272;8.590;2023-04-24T14:10:46;15.48;59.30
70246;SHT30;57637;49.272;8.590;2023-04-24T14:13:12;15.34;59.92
70246;SHT30;57637;49.272;8.590;2023-04-24T14:15:37;14.97;61.58
70246;SHT30;57637;49.272;8.590;2023-04-24T14:18:03;14.85;60.76
70246;SHT30;57637;49.272;8.590;2023-04-24T14:20:28;14.83;60.45
70246;SHT30;57637;49.272;8.590;2023-04-24T14:22:54;14.99;58.73
70246;SHT30;57637;49.272;8.590;2023-04-24T14:25:19;14.85;59.90
70246;SHT30;57637;49.272;8.590;2023-04-24T14:27:45;14.92;57.87
70246;SHT30;57637;49.272;8.590;2023-04-24T14:30:12;14.87;59.23
70246;SHT30;57637;49.272;8.590;2023-04-24T14:32:38;14.58;58.37
70246;SHT30;57637;49.272;8.590;2023-04-24T14:35:04;14.62;59.05
70246;SHT30;57637;49.272;8.590;2023-04-24T14:37:30;14.69;59.88
70246;SHT30;57637;49.272;8.590;2023-04-24T14:39:56;14.75;59.78
70246;SHT30;57637;49.272;8.590;2023-04-24T14:42:22;14.69;59.74
70246;SHT30;57637;49.272;8.590;2023-04-24T14:44:47;14.56;60.07
70246;SHT30;57637;49.272;8.590;2023-04-24T14:47:13;14.39;60.60
70246;SHT30;57637;49.272;8.590;2023-04-24T14:49:38;14.29;61.21
70246;SHT30;57637;49.272;8.590;2023-04-24T14:52:03;13.95;59.43
70246;SHT30;57637;49.272;8.590;2023-04-24T14:54:29;13.80;61.43
70246;SHT30;57637;49.272;8.590;2023-04-24T14:56:55;13.69;64.27
70246;SHT30;57637;49.272;8.590;2023-04-24T14:59:22;13.83;63.08
70246;SHT30;57637;49.272;8.590;2023-04-24T15:01:47;13.98;64.72
70246;SHT30;57637;49.272;8.590;2023-04-24T15:04:13;14.24;63.86
70246;SHT30;57637;49.272;8.590;2023-04-24T15:06:38;14.31;63.56
70246;SHT30;57637;49.272;8.590;2023-04-24T15:09:04;14.32;63.50
70246;SHT30;57637;49.272;8.590;2023-04-24T15:11:29;14.31;63.76
70246;SHT30;57637;49.272;8.590;2023-04-24T15:13:55;14.34;64.20
70246;SHT30;57637;49.272;8.590;2023-04-24T15:16:21;14.21;63.70
70246;SHT30;57637;49.272;8.590;2023-04-24T15:18:46;14.35;63.55
70246;SHT30;57637;49.272;8.590;2023-04-24T15:21:11;14.29;63.98
70246;SHT30;57637;49.272;8.590;2023-04-24T15:23:38;14.24;65.32
70246;SHT30;57637;49.272;8.590;2023-04-24T15:26:03;14.22;64.94
70246;SHT30;57637;49.272;8.590;2023-04-24T15:28:28;14.11;66.64
70246;SHT30;57637;49.272;8.590;2023-04-24T15:30:54;14.08;67.24
70246;SHT30;57637;49.272;8.590;2023-04-24T15:33:19;13.87;68.73